Time;durP1;ratioP1;P1;durP2;ratioP2;P2;SDS_P1;SDS_P2;PMS_P1;PMS_P2;Temp;Humidity;BMP_temperature;BMP_pressure;BME280_temperature;BME280_humidity;BME280_pressure;Samples;Min_cycle;Max_cycle;Signal;HPM_P1;HPM_P2
2023/04/04 00:01:18;;;;;;;;;;;;;;;20.51;43.94;102577.44;4967391;28;2635;-67
2023/04/04 00:03:45;;;;;;;;;;;;;;;20.48;44.07;102585.16;4967301;28;2584;-67
2023/04/04 00:06:12;;;;;;;;;;;;;;;20.51;44.01;102583.19;4967509;28;2505;-67
2023/04/04 00:08:38;;;;;;;;;;;;;;;20.51;44.02;102588.94;4966818;28;2638;-67
2023/04/04 00:11:05;;;;;;;;;;;;;;;20.50;44.03;102585.31;4967981;28;2600;-67
2023/04/04 00:13:32;;;;;;;;;;;;;;;20.49;44.08;102575.16;4967651;28;2576;-68
2023/04/04 00:15:58;;;;;;;;;;;;;;;20.50;43.90;102576.69;4966828;28;2857;-67
2023/04/04 00:18:25;;;;;;;;;;;;;;;20.49;43.93;102580.91;4965185;28;2695;-67
2023/04/04 00:20:51;;;;;;;;;;;;;;;20.48;44.02;102585.16;4965844;28;2636;-67
2023/04/04 00:23:18;;;;;;;;;;;;;;;20.48;43.97;102575.78;4967669;28;2647;-67
2023/04/04 00:25:51;;;;;;;;;;;;;;;20.46;44.14;102578.50;4966890;28;2692;-67
2023/04/04 00:28:20;;;;;;;;;;;;;;;20.45;43.94;102577.75;4967817;28;2330;-67
2023/04/04 00:30:47;;;;;;;;;;;;;;;20.45;43.91;102579.88;4949913;28;2674;-67
2023/04/04 00:33:14;;;;;;;;;;;;;;;20.45;44.04;102586.38;4964001;28;3043;-67
2023/04/04 00:35:40;;;;;;;;;;;;;;;20.45;43.97;102574.84;4967175;28;2571;-67
2023/04/04 00:38:06;;;;;;;;;;;;;;;20.46;43.93;102570.63;4967580;28;2622;-67
2023/04/04 00:40:39;;;;;;;;;;;;;;;20.47;44.05;102577.88;4964762;28;2586;-67
2023/04/04 00:43:06;;;;;;;;;;;;;;;20.46;44.09;102576.38;4950594;28;2727;-67
2023/04/04 00:45:33;;;;;;;;;;;;;;;20.47;43.97;102571.38;4965017;28;2682;-67
2023/04/04 00:48:01;;;;;;;;;;;;;;;20.48;43.86;102581.53;4965327;28;2676;-67
2023/04/04 00:50:27;;;;;;;;;;;;;;;20.48;44.03;102573.66;4967169;28;2611;-67
2023/04/04 00:52:53;;;;;;;;;;;;;;;20.46;44.00;102582.16;4967383;28;2385;-67
2023/04/04 00:55:20;;;;;;;;;;;;;;;20.47;43.89;102571.38;4965981;28;2659;-67
2023/04/04 00:57:46;;;;;;;;;;;;;;;20.46;44.03;102570.63;4949801;28;2484;-67
2023/04/04 01:00:13;;;;;;;;;;;;;;;20.45;43.90;102580.63;4950322;28;2645;-67
2023/04/04 01:02:39;;;;;;;;;;;;;;;20.45;43.86;102568.34;4968447;28;1677;-67
2023/04/04 01:05:06;;;;;;;;;;;;;;;20.44;43.79;102576.25;4967531;28;2636;-67
2023/04/04 01:07:35;;;;;;;;;;;;;;;20.43;43.87;102566.09;4967057;28;2331;-67
2023/04/04 01:10:05;;;;;;;;;;;;;;;20.44;43.98;102561.09;4966305;28;2622;-68
2023/04/04 01:12:32;;;;;;;;;;;;;;;20.42;43.85;102558.81;4947962;28;2981;-68
2023/04/04 01:14:59;;;;;;;;;;;;;;;20.44;43.98;102563.97;4947960;28;2182;-67
2023/04/04 01:17:26;;;;;;;;;;;;;;;20.42;44.05;102561.69;4969826;28;2624;-67
2023/04/04 01:19:58;;;;;;;;;;;;;;;20.44;43.92;102561.84;4952327;28;2368;-67
2023/04/04 01:22:25;;;;;;;;;;;;;;;20.44;43.72;102556.09;4951964;28;2548;-67
2023/04/04 01:24:52;;;;;;;;;;;;;;;20.45;43.76;102563.34;4954646;28;2323;-67
2023/04/04 01:27:19;;;;;;;;;;;;;;;20.45;43.73;102568.34;4966427;28;2634;-67
2023/04/04 01:29:52;;;;;;;;;;;;;;;20.45;43.78;102551.09;4946359;28;2651;-68
2023/04/04 01:32:19;;;;;;;;;;;;;;;20.44;43.89;102549.59;4966857;28;2585;-67
2023/04/04 01:34:51;;;;;;;;;;;;;;;20.42;43.87;102558.81;4967137;28;3130;-68
2023/04/04 01:37:24;;;;;;;;;;;;;;;20.43;43.88;102557.47;4945966;28;2637;-67
2023/04/04 01:39:52;;;;;;;;;;;;;;;20.43;43.88;102553.81;4961321;28;2679;-67
2023/04/04 01:42:19;;;;;;;;;;;;;;;20.42;43.99;102555.19;4948798;28;2647;-67
2023/04/04 01:44:46;;;;;;;;;;;;;;;20.40;44.00;102557.91;4962759;28;2731;-67
2023/04/04 01:47:13;;;;;;;;;;;;;;;20.40;43.82;102543.53;4949341;28;2738;-68
2023/04/04 01:49:39;;;;;;;;;;;;;;;20.40;43.86;102547.16;4965466;28;3046;-68
2023/04/04 01:52:06;;;;;;;;;;;;;;;20.42;43.83;102541.56;4950706;28;2852;-67
2023/04/04 01:54:34;;;;;;;;;;;;;;;20.40;43.88;102538.53;4954767;28;2660;-67
2023/04/04 01:57:01;;;;;;;;;;;;;;;20.42;43.79;102546.56;4949100;28;2817;-67
2023/04/04 01:59:28;;;;;;;;;;;;;;;20.42;43.82;102543.69;4964090;28;2677;-68
2023/04/04 02:01:55;;;;;;;;;;;;;;;20.43;43.73;102542.31;4945397;28;2410;-67
2023/04/04 02:04:21;;;;;;;;;;;;;;;20.43;43.90;102537.31;4948712;28;2652;-68
2023/04/04 02:06:49;;;;;;;;;;;;;;;20.40;43.74;102532.78;4945613;28;2730;-67
2023/04/04 02:09:15;;;;;;;;;;;;;;;20.41;43.91;102528.53;4949921;28;2626;-68
2023/04/04 02:11:42;;;;;;;;;;;;;;;20.41;43.91;102533.53;4949413;28;2702;-67
2023/04/04 02:14:08;;;;;;;;;;;;;;;20.38;44.07;102524.00;4950267;28;2698;-67
2023/04/04 02:16:35;;;;;;;;;;;;;;;20.41;43.94;102534.31;4951624;28;2639;-67
2023/04/04 02:19:01;;;;;;;;;;;;;;;20.39;43.58;102531.28;4947278;28;2560;-67
2023/04/04 02:21:27;;;;;;;;;;;;;;;20.37;43.73;102528.25;4951251;28;2501;-67
2023/04/04 02:23:54;;;;;;;;;;;;;;;20.38;43.77;102529.75;4951581;28;2615;-67
2023/04/04 02:26:20;;;;;;;;;;;;;;;20.40;43.78;102527.00;4951599;28;1684;-67
2023/04/04 02:28:46;;;;;;;;;;;;;;;20.40;43.79;102524.13;4947741;28;2642;-67
2023/04/04 02:31:13;;;;;;;;;;;;;;;20.40;43.78;102527.00;4946372;28;2596;-67
2023/04/04 02:33:39;;;;;;;;;;;;;;;20.40;43.78;102518.38;4950030;28;2667;-67
2023/04/04 02:36:07;;;;;;;;;;;;;;;20.41;43.89;102519.13;4949029;28;2663;-67
2023/04/04 02:38:33;;;;;;;;;;;;;;;20.41;43.91;102522.00;4949587;28;2660;-67
2023/04/04 02:41:04;;;;;;;;;;;;;;;20.42;43.50;102517.78;4949879;28;2662;-67
2023/04/04 02:43:30;;;;;;;;;;;;;;;20.42;43.75;102517.78;4951071;28;1711;-67
2023/04/04 02:45:57;;;;;;;;;;;;;;;20.41;43.84;102505.53;4945032;29;2699;-67
2023/04/04 02:48:26;;;;;;;;;;;;;;;20.43;43.61;102508.56;4964247;28;2526;-67
2023/04/04 02:50:57;;;;;;;;;;;;;;;20.44;43.56;102510.06;4940903;28;2652;-67
2023/04/04 02:53:23;;;;;;;;;;;;;;;20.45;43.56;102494.28;4949160;28;2568;-67
2023/04/04 02:55:52;;;;;;;;;;;;;;;20.45;43.51;102500.03;4939614;28;2465;-67
2023/04/04 02:58:19;;;;;;;;;;;;;;;20.45;43.61;102499.28;4962789;28;2568;-68
2023/04/04 03:00:48;;;;;;;;;;;;;;;20.46;43.62;102497.94;4964644;28;1613;-67
2023/04/04 03:03:14;;;;;;;;;;;;;;;20.45;43.48;102494.28;4948631;28;2564;-67
2023/04/04 03:05:44;;;;;;;;;;;;;;;20.45;43.78;102494.28;4945370;28;2431;-67
2023/04/04 03:08:10;;;;;;;;;;;;;;;20.45;43.74;102488.53;4944172;28;2639;-67
2023/04/04 03:10:36;;;;;;;;;;;;;;;20.45;43.71;102488.53;4949168;28;2569;-67
2023/04/04 03:13:03;;;;;;;;;;;;;;;20.44;43.66;102489.91;4964190;28;2480;-67
2023/04/04 03:15:32;;;;;;;;;;;;;;;20.44;43.89;102480.53;4944386;28;2596;-68
2023/04/04 03:17:58;;;;;;;;;;;;;;;20.41;43.88;102482.50;4948942;28;2424;-67
2023/04/04 03:20:27;;;;;;;;;;;;;;;20.41;43.65;102485.38;4947450;28;1669;-67
2023/04/04 03:22:53;;;;;;;;;;;;;;;20.41;43.79;102482.50;4947191;28;2533;-67
2023/04/04 03:25:19;;;;;;;;;;;;;;;20.41;43.61;102470.22;4948691;28;2643;-67
2023/04/04 03:27:46;;;;;;;;;;;;;;;20.41;43.76;102475.97;4945464;28;2707;-68
2023/04/04 03:30:18;;;;;;;;;;;;;;;20.43;43.60;102479.78;4948762;28;2624;-67
2023/04/04 03:32:45;;;;;;;;;;;;;;;20.42;43.71;102472.50;4945796;28;2707;-67
2023/04/04 03:35:12;;;;;;;;;;;;;;;20.44;43.71;102469.75;4953035;28;2560;-67
2023/04/04 03:37:39;;;;;;;;;;;;;;;20.45;43.60;102465.50;4965122;28;2610;-67
2023/04/04 03:40:06;;;;;;;;;;;;;;;20.45;43.56;102470.50;4950329;28;2564;-67
2023/04/04 03:42:33;;;;;;;;;;;;;;;20.44;43.69;102464.00;4952921;28;2569;-67
2023/04/04 03:45:01;;;;;;;;;;;;;;;20.44;43.74;102469.75;4950715;28;2660;-68
2023/04/04 03:47:31;;;;;;;;;;;;;;;20.43;43.74;102462.50;4949228;28;2516;-67
2023/04/04 03:49:58;;;;;;;;;;;;;;;20.43;43.78;102462.50;4950566;28;2294;-67
2023/04/04 03:52:25;;;;;;;;;;;;;;;20.42;43.68;102454.47;4966074;28;2694;-67
2023/04/04 03:54:51;;;;;;;;;;;;;;;20.41;43.83;102459.47;4967055;28;2682;-67
2023/04/04 03:57:18;;;;;;;;;;;;;;;20.42;43.66;102460.22;4967940;28;2683;-67
2023/04/04 03:59:45;;;;;;;;;;;;;;;20.42;43.62;102451.59;4967509;28;1919;-68
2023/04/04 04:02:11;;;;;;;;;;;;;;;20.42;43.82;102452.34;4944589;28;2505;-67
2023/04/04 04:04:38;;;;;;;;;;;;;;;20.43;43.72;102451.00;4965574;28;2708;-67
2023/04/04 04:07:04;;;;;;;;;;;;;;;20.42;43.64;102446.59;4943838;28;2636;-68
2023/04/04 04:09:31;;;;;;;;;;;;;;;20.43;43.63;102448.13;4968832;28;2560;-68
2023/04/04 04:11:57;;;;;;;;;;;;;;;20.44;43.70;102446.75;4966849;28;2738;-67
2023/04/04 04:14:23;;;;;;;;;;;;;;;20.44;43.67;102446.00;4967555;28;2477;-67
2023/04/04 04:16:50;;;;;;;;;;;;;;;20.45;43.55;102439.59;4967881;28;2580;-67
2023/04/04 04:19:19;;;;;;;;;;;;;;;20.44;43.36;102452.50;4945440;28;2546;-67
2023/04/04 04:21:46;;;;;;;;;;;;;;;20.45;43.76;102448.25;4965240;28;2555;-67
2023/04/04 04:24:13;;;;;;;;;;;;;;;20.44;43.49;102449.63;4943474;28;1969;-67
2023/04/04 04:26:39;;;;;;;;;;;;;;;20.43;43.65;102451.00;4966300;28;2560;-67
2023/04/04 04:29:06;;;;;;;;;;;;;;;20.43;43.86;102455.97;4967323;28;2908;-67
2023/04/04 04:31:33;;;;;;;;;;;;;;;20.43;43.57;102450.22;4966263;28;2544;-67
2023/04/04 04:33:59;;;;;;;;;;;;;;;20.42;43.55;102455.22;4949032;28;2660;-68
2023/04/04 04:36:29;;;;;;;;;;;;;;;20.40;43.62;102457.97;4948758;28;2589;-68
2023/04/04 04:39:10;;;;;;;;;;;;;;;20.41;43.55;102459.47;4958963;28;2642;-67
2023/04/04 04:41:41;;;;;;;;;;;;;;;20.37;43.78;102470.69;4966206;28;2406;-64
2023/04/04 04:44:09;;;;;;;;;;;;;;;18.77;36.70;102452.28;4951732;28;2564;-66
2023/04/04 04:46:36;;;;;;;;;;;;;;;19.37;38.92;102466.19;4950085;28;2632;-66
2023/04/04 04:49:09;;;;;;;;;;;;;;;19.96;40.16;102461.25;4950040;28;1644;-67
2023/04/04 04:51:36;;;;;;;;;;;;;;;20.15;40.76;102466.94;4948956;28;2512;-67
2023/04/04 04:54:02;;;;;;;;;;;;;;;20.22;41.66;102468.16;4948051;28;2705;-67
2023/04/04 04:56:29;;;;;;;;;;;;;;;20.25;41.54;102469.81;4949557;28;2854;-67
2023/04/04 04:59:06;;;;;;;;;;;;;;;20.28;41.74;102475.09;4944939;28;2667;-67
2023/04/04 05:01:32;;;;;;;;;;;;;;;20.30;41.76;102474.50;4966900;28;2110;-67
2023/04/04 05:03:59;;;;;;;;;;;;;;;20.32;42.32;102473.88;4948185;28;2536;-67
2023/04/04 05:06:35;;;;;;;;;;;;;;;20.32;42.24;102480.41;4950357;28;1984;-67
2023/04/04 05:09:05;;;;;;;;;;;;;;;20.32;42.25;102474.66;4966284;28;1885;-66
2023/04/04 05:11:35;;;;;;;;;;;;;;;20.32;42.22;102491.91;4947158;28;1665;-67
2023/04/04 05:14:02;;;;;;;;;;;;;;;20.33;42.33;102481.91;4949116;28;1649;-66
2023/04/04 05:16:34;;;;;;;;;;;;;;;20.32;42.39;102486.16;4951108;28;2367;-66
2023/04/04 05:19:01;;;;;;;;;;;;;;;20.32;42.45;102491.13;4947985;28;1664;-66
2023/04/04 05:21:34;;;;;;;;;;;;;;;20.31;42.63;102490.38;4949467;28;1698;-66
2023/04/04 05:24:02;;;;;;;;;;;;;;;20.32;42.62;102486.16;4953734;28;2177;-66
2023/04/04 05:26:30;;;;;;;;;;;;;;;20.34;42.49;102488.41;4965217;28;2437;-66
2023/04/04 05:28:58;;;;;;;;;;;;;;;20.35;42.61;102496.44;4965162;28;2537;-67
2023/04/04 05:31:26;;;;;;;;;;;;;;;20.40;42.89;102497.50;4949282;28;1991;-66
2023/04/04 05:33:53;;;;;;;;;;;;;;;20.40;42.81;102497.50;4946702;28;2694;-66
2023/04/04 05:36:30;;;;;;;;;;;;;;;20.39;42.73;102496.75;4946515;28;2746;-66
2023/04/04 05:39:04;;;;;;;;;;;;;;;20.39;42.77;102502.50;4945127;28;2659;-66
2023/04/04 05:41:35;;;;;;;;;;;;;;;20.41;42.88;102496.91;4936903;28;2932;-66
2023/04/04 05:44:08;;;;;;;;;;;;;;;20.38;42.87;102495.22;4946991;28;2611;-67
2023/04/04 05:46:35;;;;;;;;;;;;;;;20.37;42.89;102493.72;4942983;28;2608;-67
2023/04/04 05:49:02;;;;;;;;;;;;;;;20.37;43.06;102487.97;4958651;28;2688;-67
2023/04/04 05:51:30;;;;;;;;;;;;;;;20.39;43.20;102498.88;4942000;28;2670;-68
2023/04/04 05:54:06;;;;;;;;;;;;;;;20.42;42.91;102498.38;4945259;28;2844;-67
2023/04/04 05:56:34;;;;;;;;;;;;;;;20.40;43.02;102497.50;4943328;28;2665;-67
2023/04/04 05:59:03;;;;;;;;;;;;;;;20.43;43.00;102497.03;4961241;28;2635;-68
2023/04/04 06:01:33;;;;;;;;;;;;;;;20.46;42.98;102501.56;4943112;28;2774;-68
2023/04/04 06:04:06;;;;;;;;;;;;;;;20.48;42.93;102510.34;4948030;28;2667;-68
2023/04/04 06:06:33;;;;;;;;;;;;;;;20.50;42.96;102501.09;4947731;28;2539;-68
2023/04/04 06:08:59;;;;;;;;;;;;;;;20.51;42.95;102497.59;4949015;28;2528;-67
2023/04/04 06:11:26;;;;;;;;;;;;;;;20.51;42.93;102497.59;4946890;28;3031;-68
2023/04/04 06:14:00;;;;;;;;;;;;;;;20.49;43.09;102500.34;4948871;28;2762;-68
2023/04/04 06:16:27;;;;;;;;;;;;;;;20.53;42.93;102496.25;4948796;28;2770;-68
2023/04/04 06:18:53;;;;;;;;;;;;;;;20.53;43.06;102499.13;4949247;28;2657;-68
2023/04/04 06:21:20;;;;;;;;;;;;;;;20.51;43.00;102509.13;4948581;28;2540;-68
2023/04/04 06:23:46;;;;;;;;;;;;;;;20.53;42.95;102504.88;4962857;28;2694;-68
2023/04/04 06:26:13;;;;;;;;;;;;;;;20.50;42.96;102507.63;4946878;28;2737;-67
2023/04/04 06:28:48;;;;;;;;;;;;;;;20.53;43.23;102499.13;4945095;28;2831;-67
2023/04/04 06:31:17;;;;;;;;;;;;;;;20.52;43.07;102498.34;4945066;28;2635;-68
2023/04/04 06:33:45;;;;;;;;;;;;;;;20.51;43.05;102502.63;4962017;28;2710;-67
2023/04/04 06:36:14;;;;;;;;;;;;;;;20.51;43.12;102509.13;4948134;28;2941;-67
2023/04/04 06:38:40;;;;;;;;;;;;;;;20.51;43.22;102503.38;4948922;28;2580;-68
2023/04/04 06:41:14;;;;;;;;;;;;;;;20.55;42.99;102508.66;4947225;28;2608;-68
2023/04/04 06:43:40;;;;;;;;;;;;;;;20.58;43.00;102512.47;4949116;28;2642;-68
2023/04/04 06:46:07;;;;;;;;;;;;;;;20.57;43.03;102505.97;4949751;28;2600;-68
2023/04/04 06:48:33;;;;;;;;;;;;;;;20.61;42.94;102505.47;4947496;28;2740;-67
2023/04/04 06:51:00;;;;;;;;;;;;;;;20.62;42.91;102501.25;4955775;28;2726;-67
2023/04/04 06:53:26;;;;;;;;;;;;;;;20.63;42.93;102503.50;4947151;28;2742;-68
2023/04/04 06:55:53;;;;;;;;;;;;;;;20.64;43.12;102505.03;4946764;28;2734;-68
2023/04/04 06:58:20;;;;;;;;;;;;;;;20.63;43.05;102503.50;4920875;29;2666;-67
2023/04/04 07:00:46;;;;;;;;;;;;;;;20.63;43.05;102508.50;4963567;28;2464;-68
2023/04/04 07:03:13;;;;;;;;;;;;;;;20.65;42.98;102506.53;4947974;28;2484;-67
2023/04/04 07:05:40;;;;;;;;;;;;;;;20.67;43.03;102503.06;4949657;28;2543;-68
2023/04/04 07:08:06;;;;;;;;;;;;;;;20.67;43.26;102497.28;4948941;28;2551;-68
2023/04/04 07:10:33;;;;;;;;;;;;;;;20.64;43.19;102502.16;4948122;28;2714;-68
2023/04/04 07:12:59;;;;;;;;;;;;;;;20.65;43.11;102494.28;4949307;28;2560;-68
2023/04/04 07:15:26;;;;;;;;;;;;;;;20.66;43.18;102490.78;4948736;28;2647;-68
2023/04/04 07:17:53;;;;;;;;;;;;;;;20.67;43.23;102497.28;4948387;28;2551;-68
2023/04/04 07:20:20;;;;;;;;;;;;;;;20.68;43.14;102495.91;4949238;28;2949;-68
2023/04/04 07:22:47;;;;;;;;;;;;;;;20.68;43.02;102495.91;4947825;28;2484;-67
2023/04/04 07:25:13;;;;;;;;;;;;;;;20.67;43.00;102486.53;4948399;28;2722;-68
2023/04/04 07:27:39;;;;;;;;;;;;;;;20.68;43.29;102485.19;4945520;28;2619;-68
2023/04/04 07:30:07;;;;;;;;;;;;;;;20.66;43.15;102484.25;4948074;28;2631;-68
2023/04/04 07:32:33;;;;;;;;;;;;;;;20.66;43.26;102470.63;4949659;28;2425;-67
2023/04/04 07:34:59;;;;;;;;;;;;;;;20.68;43.25;102476.53;4956071;28;2667;-68
2023/04/04 07:37:26;;;;;;;;;;;;;;;20.70;43.09;102479.53;4967925;28;2620;-67
2023/04/04 07:39:52;;;;;;;;;;;;;;;20.67;43.12;102485.78;4968936;28;2614;-67
2023/04/04 07:42:22;;;;;;;;;;;;;;;20.70;43.12;102479.53;4967862;28;2775;-67
2023/04/04 07:44:48;;;;;;;;;;;;;;;20.68;43.20;102473.66;4964443;28;2464;-67
2023/04/04 07:47:15;;;;;;;;;;;;;;;20.73;43.31;102471.81;4967524;28;2600;-68
2023/04/04 07:49:42;;;;;;;;;;;;;;;20.74;43.22;102473.31;4968102;28;2450;-67
2023/04/04 07:52:08;;;;;;;;;;;;;;;20.75;43.26;102469.06;4966359;28;2686;-68
2023/04/04 07:54:34;;;;;;;;;;;;;;;20.73;43.40;102477.59;4968707;28;2619;-67
2023/04/04 07:57:04;;;;;;;;;;;;;;;20.70;43.43;102465.13;4967722;28;2507;-67
2023/04/04 07:59:31;;;;;;;;;;;;;;;20.70;43.36;102473.03;4967630;28;2556;-67
2023/04/04 08:01:57;;;;;;;;;;;;;;;20.73;43.33;102471.81;4966689;28;2728;-67
2023/04/04 08:04:24;;;;;;;;;;;;;;;20.71;43.29;102465.91;4968670;28;2593;-67
2023/04/04 08:06:50;;;;;;;;;;;;;;;20.74;43.40;102461.81;4968603;28;2627;-67
2023/04/04 08:09:16;;;;;;;;;;;;;;;20.80;43.12;102465.13;4967418;28;2579;-67
2023/04/04 08:11:43;;;;;;;;;;;;;;;20.77;43.33;102460.56;4968347;28;2608;-67
2023/04/04 08:14:12;;;;;;;;;;;;;;;20.79;43.24;102457.09;4967707;28;2639;-67
2023/04/04 08:16:38;;;;;;;;;;;;;;;20.78;43.35;102461.34;4968476;28;2658;-67
2023/04/04 08:19:06;;;;;;;;;;;;;;;20.80;43.30;102465.13;4969843;28;1794;-68
2023/04/04 08:21:33;;;;;;;;;;;;;;;20.79;43.16;102466.47;4968649;28;2469;-67
2023/04/04 08:23:59;;;;;;;;;;;;;;;20.77;43.27;102460.56;4967733;28;2580;-67
2023/04/04 08:26:25;;;;;;;;;;;;;;;20.77;43.35;102460.56;4967184;28;2580;-67
2023/04/04 08:28:52;;;;;;;;;;;;;;;20.76;43.23;102467.72;4967942;28;2623;-67
2023/04/04 08:31:18;;;;;;;;;;;;;;;20.78;43.38;102462.09;4965078;28;2580;-68
2023/04/04 08:33:45;;;;;;;;;;;;;;;20.78;43.38;102462.09;4967543;28;2675;-67
2023/04/04 08:36:13;;;;;;;;;;;;;;;20.79;43.16;102457.84;4968106;28;2707;-67
2023/04/04 08:38:39;;;;;;;;;;;;;;;20.80;43.44;102458.59;4967120;28;2663;-67
2023/04/04 08:41:06;;;;;;;;;;;;;;;20.81;43.30;102466.63;4967652;28;3092;-67
2023/04/04 08:43:33;;;;;;;;;;;;;;;20.82;43.39;102456.63;4968396;28;2281;-67
2023/04/04 08:45:59;;;;;;;;;;;;;;;20.81;43.20;102460.13;4967090;28;2635;-67
2023/04/04 08:48:28;;;;;;;;;;;;;;;20.82;43.02;102456.63;4967705;28;2563;-68
2023/04/04 08:50:56;;;;;;;;;;;;;;;20.82;43.29;102450.09;4948926;28;2692;-67
2023/04/04 08:53:23;;;;;;;;;;;;;;;20.81;43.55;102454.34;4950328;28;2648;-67
2023/04/04 08:55:49;;;;;;;;;;;;;;;20.83;43.41;102446.59;4963496;28;2667;-67
2023/04/04 08:58:16;;;;;;;;;;;;;;;20.78;43.38;102444.81;4966148;28;2599;-68
2023/04/04 09:00:42;;;;;;;;;;;;;;;20.81;43.54;102439.97;4968466;28;2532;-68
2023/04/04 09:03:12;;;;;;;;;;;;;;;20.83;43.45;102443.72;4967249;28;2608;-67
2023/04/04 09:05:39;;;;;;;;;;;;;;;20.82;43.40;102445.13;4966972;28;3032;-67
2023/04/04 09:08:08;;;;;;;;;;;;;;;20.81;43.40;102434.94;4963331;28;2729;-68
2023/04/04 09:10:36;;;;;;;;;;;;;;;20.82;43.32;102442.22;4947395;28;2660;-67
2023/04/04 09:13:03;;;;;;;;;;;;;;;20.83;43.44;102440.84;4967073;28;2608;-67
2023/04/04 09:15:42;;;;;;;;;;;;;;;20.83;43.27;102440.09;4966983;28;2636;-67
2023/04/04 09:18:08;;;;;;;;;;;;;;;20.85;43.30;102435.25;4967142;28;2670;-68
2023/04/04 09:20:35;;;;;;;;;;;;;;;20.84;43.36;102436.59;4966731;28;2702;-67
2023/04/04 09:23:03;;;;;;;;;;;;;;;20.86;43.53;102435.97;4966110;28;2596;-68
2023/04/04 09:25:30;;;;;;;;;;;;;;;20.84;43.37;102432.97;4967001;28;2845;-67
2023/04/04 09:27:56;;;;;;;;;;;;;;;20.85;43.35;102431.59;4964626;28;2666;-68
2023/04/04 09:30:23;;;;;;;;;;;;;;;20.84;43.42;102436.59;4964453;28;3000;-68
2023/04/04 09:32:50;;;;;;;;;;;;;;;20.83;43.28;102435.09;4965644;28;2576;-67
2023/04/04 09:35:16;;;;;;;;;;;;;;;20.85;43.36;102435.25;4949383;28;2707;-67
2023/04/04 09:37:43;;;;;;;;;;;;;;;20.85;43.51;102429.47;4964251;28;2636;-67
2023/04/04 09:40:09;;;;;;;;;;;;;;;20.86;43.29;102433.84;4968107;28;2638;-67
2023/04/04 09:42:36;;;;;;;;;;;;;;;20.85;43.46;102425.84;4964529;28;2680;-67
2023/04/04 09:45:03;;;;;;;;;;;;;;;20.86;43.28;102418.72;4957832;28;2645;-68
2023/04/04 09:47:32;;;;;;;;;;;;;;;20.90;43.33;102425.50;4967297;28;2577;-67
2023/04/04 09:49:59;;;;;;;;;;;;;;;20.90;43.22;102425.50;4970303;28;2500;-67
2023/04/04 09:52:25;;;;;;;;;;;;;;;20.89;43.53;102421.13;4969896;28;2397;-67
2023/04/04 09:54:58;;;;;;;;;;;;;;;20.91;43.39;102418.38;4969837;28;2564;-67
2023/04/04 09:57:25;;;;;;;;;;;;;;;20.91;43.48;102424.16;4970020;28;2679;-68
2023/04/04 09:59:51;;;;;;;;;;;;;;;20.91;43.50;102426.25;4968494;28;2659;-67
2023/04/04 10:02:18;;;;;;;;;;;;;;;20.91;43.26;102424.16;4968756;28;2536;-67
2023/04/04 10:04:44;;;;;;;;;;;;;;;20.92;43.41;102419.88;4956220;28;2818;-67
2023/04/04 10:07:16;;;;;;;;;;;;;;;20.92;43.41;102414.13;4969790;28;2685;-67
2023/04/04 10:09:42;;;;;;;;;;;;;;;20.94;43.30;102413.53;4970533;28;2684;-67
2023/04/04 10:12:12;;;;;;;;;;;;;;;20.92;43.30;102419.88;4970636;28;1692;-67
2023/04/04 10:14:38;;;;;;;;;;;;;;;20.95;43.37;102411.38;4970754;28;1731;-67
2023/04/04 10:17:07;;;;;;;;;;;;;;;20.95;43.49;102403.50;4970531;28;1763;-67
2023/04/04 10:19:36;;;;;;;;;;;;;;;20.96;43.30;102402.16;4971141;28;1683;-67
2023/04/04 10:22:03;;;;;;;;;;;;;;;20.97;43.50;102406.53;4970396;28;2712;-67
2023/04/04 10:24:29;;;;;;;;;;;;;;;20.97;43.26;102408.66;4969899;28;1807;-68
2023/04/04 10:26:55;;;;;;;;;;;;;;;20.97;43.22;102408.66;4970603;28;1980;-68
2023/04/04 10:29:22;;;;;;;;;;;;;;;20.97;43.42;102409.41;4967199;28;2710;-67
2023/04/04 10:31:49;;;;;;;;;;;;;;;20.97;43.30;102400.00;4970685;28;2984;-68
2023/04/04 10:34:19;;;;;;;;;;;;;;;20.96;43.31;102402.16;4970453;28;1683;-68
2023/04/04 10:36:52;;;;;;;;;;;;;;;20.95;43.40;102403.50;4967674;28;2698;-68
2023/04/04 10:39:26;;;;;;;;;;;;;;;20.95;43.49;102391.97;4968811;28;2687;-68
2023/04/04 10:41:52;;;;;;;;;;;;;;;20.97;43.27;102397.13;4969444;28;1615;-68
2023/04/04 10:44:37;;;;;;;;;;;;;;;20.97;43.35;102402.88;4970413;28;2713;-68
2023/04/04 10:47:08;;;;;;;;;;;;;;;20.98;43.22;102392.88;4971130;28;1965;-67
2023/04/04 10:49:35;;;;;;;;;;;;;;;21.00;43.34;102390.13;4946503;28;2785;-68
2023/04/04 10:52:01;;;;;;;;;;;;;;;20.98;43.17;102379.25;4970243;28;2678;-67
2023/04/04 10:54:28;;;;;;;;;;;;;;;20.99;43.18;102386.50;4952576;28;2566;-67
2023/04/04 10:56:55;;;;;;;;;;;;;;;21.00;43.31;102375.72;4970701;28;1707;-67
2023/04/04 10:59:21;;;;;;;;;;;;;;;20.99;43.23;102382.88;4971101;28;1668;-67
2023/04/04 11:01:49;;;;;;;;;;;;;;;21.00;43.23;102367.84;4947457;28;1905;-67
2023/04/04 11:04:16;;;;;;;;;;;;;;;20.98;43.45;102375.59;4968725;28;1719;-68
2023/04/04 11:07:05;;;;;;;;;;;;;;;20.98;43.29;102364.84;4970964;28;2694;-68
2023/04/04 11:09:50;;;;;;;;;;;;;;;21.00;43.27;102370.72;4967133;28;2687;-67
2023/04/04 11:12:20;;;;;;;;;;;;;;;21.04;43.18;102373.13;4968579;28;2623;-68
2023/04/04 11:15:02;;;;;;;;;;;;;;;21.00;43.17;102359.19;4969476;28;2891;-67
2023/04/04 11:17:45;;;;;;;;;;;;;;;21.01;43.36;102359.97;4966779;28;2622;-67
2023/04/04 11:20:15;;;;;;;;;;;;;;;21.03;43.19;102360.88;4968710;28;2790;-67
2023/04/04 11:22:42;;;;;;;;;;;;;;;21.03;43.29;102354.34;4968555;28;2892;-68
2023/04/04 11:25:24;;;;;;;;;;;;;;;21.05;43.44;102351.59;4969668;28;2984;-68
2023/04/04 11:27:53;;;;;;;;;;;;;;;21.03;43.75;102348.59;4969736;28;1969;-68
2023/04/04 11:30:19;;;;;;;;;;;;;;;21.07;43.79;102331.56;4968040;28;1567;-67
2023/04/04 11:32:48;;;;;;;;;;;;;;;21.09;43.83;102346.09;4966193;28;2646;-67
2023/04/04 11:35:31;;;;;;;;;;;;;;;21.08;44.06;102338.84;4967736;28;2704;-68
2023/04/04 11:37:59;;;;;;;;;;;;;;;21.04;44.13;102347.22;4960997;28;1934;-67
2023/04/04 11:40:32;;;;;;;;;;;;;;;21.02;44.24;102347.06;4968782;28;2899;-68
2023/04/04 11:43:02;;;;;;;;;;;;;;;21.04;44.13;102332.81;4969643;28;1703;-67
2023/04/04 11:45:28;;;;;;;;;;;;;;;21.07;44.35;102340.19;4967822;28;2548;-67
2023/04/04 11:47:55;;;;;;;;;;;;;;;21.05;44.25;102329.31;4967151;28;2626;-67
2023/04/04 11:50:22;;;;;;;;;;;;;;;21.07;44.52;102320.03;4964222;28;2669;-67
2023/04/04 11:52:48;;;;;;;;;;;;;;;21.09;44.45;102306.53;4968091;28;2724;-67
2023/04/04 11:55:18;;;;;;;;;;;;;;;21.08;44.49;102310.03;4968634;28;2718;-64
2023/04/04 11:57:50;;;;;;;;;;;;;;;20.03;36.09;102320.16;4968005;28;1635;-64
2023/04/04 12:00:33;;;;;;;;;;;;;;;19.57;32.99;102306.03;4968401;28;2753;-67
2023/04/04 12:03:00;;;;;;;;;;;;;;;20.18;38.96;102310.44;4968647;28;2445;-68
2023/04/04 12:05:27;;;;;;;;;;;;;;;20.59;40.47;102300.97;4960254;28;2406;-67
2023/04/04 12:07:54;;;;;;;;;;;;;;;20.81;40.15;102299.63;4967999;28;2438;-66
2023/04/04 12:10:20;;;;;;;;;;;;;;;20.90;40.33;102307.44;4966191;28;3156;-66
2023/04/04 12:12:47;;;;;;;;;;;;;;;20.95;40.65;102308.47;4968500;28;2442;-67
2023/04/04 12:15:13;;;;;;;;;;;;;;;20.97;40.75;102304.97;4969037;28;2421;-66
2023/04/04 12:17:44;;;;;;;;;;;;;;;21.00;40.98;102278.56;4968628;28;2690;-66
2023/04/04 12:20:12;;;;;;;;;;;;;;;21.01;41.39;102294.47;4967950;28;3171;-67
2023/04/04 12:22:39;;;;;;;;;;;;;;;21.02;41.70;102283.72;4962881;28;2765;-66
2023/04/04 12:25:05;;;;;;;;;;;;;;;21.02;41.90;102283.72;4963472;28;2726;-66
2023/04/04 12:27:32;;;;;;;;;;;;;;;21.00;41.78;102281.44;4949117;28;2727;-66
2023/04/04 12:29:59;;;;;;;;;;;;;;;21.00;42.13;102274.94;4964462;28;2588;-67
2023/04/04 12:32:26;;;;;;;;;;;;;;;20.99;42.27;102274.19;4966752;28;2729;-66
2023/04/04 12:34:55;;;;;;;;;;;;;;;21.03;42.24;102282.34;4967373;28;2548;-67
2023/04/04 12:37:22;;;;;;;;;;;;;;;21.37;42.31;102280.19;4950165;28;1633;-72
2023/04/04 12:39:48;;;;;;;;;;;;;;;21.64;42.11;102266.13;4948906;28;2857;-71
2023/04/04 12:42:21;;;;;;;;;;;;;;;21.73;42.04;102265.25;4944960;28;2783;-72
2023/04/04 12:44:48;;;;;;;;;;;;;;;21.81;41.86;102264.28;4964412;28;1628;-75
2023/04/04 12:47:16;;;;;;;;;;;;;;;21.82;42.12;102255.00;4967063;28;2618;-72
2023/04/04 12:49:44;;;;;;;;;;;;;;;21.89;42.07;102250.38;4959120;28;1866;-68
2023/04/04 12:52:20;;;;;;;;;;;;;;;21.89;42.19;102247.47;4965550;28;2580;-75